Weather at Akron Airport/Jesson Field

Public forecast

Using degrees Fahrenheit for public forecast. Weather courtesy of forecast.io.

Closest aviation weather report (METAR) to Akron Airport/Jesson Field

Closest report is Buffalo Niagara International Airport, 12.0 nm (22.2 km) WSW.

2024/05/26 08:54 (retrieved 12 minutes ago)

KBUF 260854Z 18003KT 1/8SM R23/1000V1600FT FG VV001 14/14 A2992 RMK AO2 SLP131 T01440139 50006

Closest aviation forecast (TAF) to Akron Airport/Jesson Field

Closest forecast is Buffalo Niagara International Airport, 12.0 nm (22.2 km) WSW.

2024/05/26 07:03 Ammendment (retrieved 2 hours ago)

TAF AMD KBUF 260701Z 2607/2706 00000KT 1/4SM FG VV003 FM261000 00000KT 1SM BR OVC004 FM261400 00000KT P6SM BKN025 FM261500 VRB03KT P6SM SCT250 FM261800 07005KT P6SM SKC FM270300 10010KT P6SM BKN100